Time;durP1;ratioP1;P1;durP2;ratioP2;P2;SDS_P1;SDS_P2;PMS_P1;PMS_P2;Temp;Humidity;BMP_temperature;BMP_pressure;BME280_temperature;BME280_humidity;BME280_pressure;Samples;Min_cycle;Max_cycle;Signal;HPM_P1;HPM_P2
2022/09/10 00:02:12;;;;;;;2.43;1.60;;;17.70;99.90;;;;;;5126633;27;20194;-69
2022/09/10 00:04:40;;;;;;;3.00;1.60;;;17.70;99.90;;;;;;5111035;28;20202;-69
2022/09/10 00:07:07;;;;;;;1.90;1.43;;;17.70;99.90;;;;;;5111210;27;20209;-69
2022/09/10 00:09:33;;;;;;;2.37;1.30;;;17.60;99.90;;;;;;5131337;27;20201;-69
2022/09/10 00:12:00;;;;;;;1.43;1.33;;;17.60;99.90;;;;;;5131531;27;20209;-69
2022/09/10 00:14:27;;;;;;;3.93;1.60;;;17.60;99.90;;;;;;5124049;27;20222;-69
2022/09/10 00:16:54;;;;;;;1.67;1.00;;;17.60;99.90;;;;;;5110416;28;20209;-69
2022/09/10 00:19:21;;;;;;;1.43;1.13;;;17.60;99.90;;;;;;5110516;28;20206;-69
2022/09/10 00:21:51;;;;;;;2.00;1.40;;;17.60;99.90;;;;;;5110646;28;20206;-68
2022/09/10 00:24:17;;;;;;;1.60;1.37;;;17.70;99.90;;;;;;5119298;27;20221;-68
2022/09/10 00:26:44;;;;;;;2.97;1.10;;;17.60;99.90;;;;;;5121603;27;20198;-68
2022/09/10 00:29:16;;;;;;;3.90;1.53;;;17.60;99.90;;;;;;5110473;28;20226;-68
2022/09/10 00:31:43;;;;;;;1.40;1.30;;;17.60;99.90;;;;;;5110993;27;20281;-68
2022/09/10 00:34:11;;;;;;;3.27;1.10;;;17.60;99.90;;;;;;5130145;27;20671;-68
2022/09/10 00:36:40;;;;;;;1.40;1.27;;;17.50;99.90;;;;;;5130292;27;20205;-69
2022/09/10 00:39:10;;;;;;;1.80;1.30;;;17.60;99.90;;;;;;5121397;27;20203;-68
2022/09/10 00:41:39;;;;;;;4.10;1.40;;;17.60;99.90;;;;;;5117749;27;20205;-68
2022/09/10 00:44:08;;;;;;;1.80;1.40;;;17.50;99.90;;;;;;5112517;27;20249;-69
2022/09/10 00:46:42;;;;;;;1.53;1.37;;;17.50;99.90;;;;;;5129760;27;20711;-70
2022/09/10 00:49:14;;;;;;;1.50;1.40;;;17.50;99.90;;;;;;5130554;27;20212;-70
2022/09/10 00:51:41;;;;;;;2.10;1.30;;;17.50;99.90;;;;;;5117478;27;20209;-70
2022/09/10 00:54:10;;;;;;;2.53;1.53;;;17.50;99.90;;;;;;5118738;27;20228;-69
2022/09/10 00:56:37;;;;;;;2.13;1.53;;;17.50;99.90;;;;;;5130612;27;20205;-70
2022/09/10 00:59:07;;;;;;;2.33;1.30;;;17.50;99.90;;;;;;5142890;27;20288;-69
2022/09/10 01:01:37;;;;;;;3.83;1.70;;;17.50;99.90;;;;;;5109543;28;20202;-69
2022/09/10 01:04:04;;;;;;;1.77;1.40;;;17.40;99.90;;;;;;5109623;28;20229;-71
2022/09/10 01:06:31;;;;;;;3.73;1.60;;;17.40;99.90;;;;;;5116764;27;20194;-71
2022/09/10 01:08:59;;;;;;;3.10;1.60;;;17.40;99.90;;;;;;5130406;27;20209;-71
2022/09/10 01:11:41;;;;;;;1.53;1.30;;;17.40;99.90;;;;;;5130301;27;20202;-71
2022/09/10 01:14:34;;;;;;;2.63;1.53;;;17.40;99.90;;;;;;5117892;27;20194;-69
2022/09/10 01:17:08;;;;;;;1.73;1.30;;;17.40;99.90;;;;;;5109667;28;20190;-69
2022/09/10 01:19:55;;;;;;;3.87;1.47;;;17.30;99.90;;;;;;5123447;27;20221;-69
2022/09/10 01:22:31;;;;;;;4.40;1.30;;;17.30;99.90;;;;;;5130267;27;20197;-69
2022/09/10 01:25:02;;;;;;;5.07;1.50;;;17.30;99.90;;;;;;5130132;27;20205;-69
2022/09/10 01:27:41;;;;;;;1.33;1.23;;;17.30;99.90;;;;;;5129966;27;20217;-69
2022/09/10 01:30:13;;;;;;;1.50;1.40;;;17.30;99.90;;;;;;5123557;27;20200;-68
2022/09/10 01:33:03;;;;;;;2.43;1.90;;;17.30;99.90;;;;;;5109159;28;20220;-68
2022/09/10 01:35:35;;;;;;;2.63;1.83;;;17.30;99.90;;;;;;5109285;28;20249;-67
2022/09/10 01:38:08;;;;;;;2.40;1.60;;;17.30;99.90;;;;;;5118516;27;20297;-67
2022/09/10 01:40:36;;;;;;;2.90;1.50;;;17.30;99.90;;;;;;5109110;28;20267;-68
2022/09/10 01:43:07;;;;;;;2.07;1.70;;;17.30;99.90;;;;;;5108576;28;20967;-68
2022/09/10 01:45:50;;;;;;;2.17;1.50;;;17.30;99.90;;;;;;5123731;27;20221;-68
2022/09/10 01:48:49;;;;;;;3.67;1.50;;;17.20;99.90;;;;;;5129188;27;20656;-68
2022/09/10 01:51:24;;;;;;;3.50;1.60;;;17.20;99.90;;;;;;5129520;27;20205;-68
2022/09/10 01:54:10;;;;;;;1.87;1.50;;;17.20;99.90;;;;;;5128644;27;20193;-70
2022/09/10 01:56:46;;;;;;;1.53;1.43;;;17.20;99.90;;;;;;5118130;27;20278;-69
2022/09/10 01:59:27;;;;;;;2.63;1.60;;;17.20;99.90;;;;;;5108712;28;20199;-70
2022/09/10 02:02:00;;;;;;;1.87;1.37;;;17.20;99.90;;;;;;5108424;28;20187;-69
2022/09/10 02:04:28;;;;;;;3.07;1.37;;;17.20;99.90;;;;;;5108639;27;20198;-70
2022/09/10 02:06:56;;;;;;;2.47;1.70;;;17.20;99.90;;;;;;5108199;28;20800;-69
2022/09/10 02:09:23;;;;;;;4.43;1.63;;;17.10;99.90;;;;;;5108458;28;20209;-70
2022/09/10 02:11:52;;;;;;;3.33;1.90;;;17.10;99.90;;;;;;5108501;28;20210;-70
2022/09/10 02:14:21;;;;;;;1.50;1.40;;;17.10;99.90;;;;;;5127800;27;20206;-69
2022/09/10 02:16:53;;;;;;;2.50;1.80;;;17.10;99.90;;;;;;5119604;27;20230;-70
2022/09/10 02:19:20;;;;;;;7.00;1.67;;;17.10;99.90;;;;;;5111710;27;20194;-70
2022/09/10 02:21:46;;;;;;;1.50;1.40;;;17.10;99.90;;;;;;5128965;27;20212;-70
2022/09/10 02:24:14;;;;;;;3.13;1.73;;;17.00;99.90;;;;;;5128485;27;20256;-70
2022/09/10 02:26:43;;;;;;;3.07;1.60;;;17.00;99.90;;;;;;5128589;27;20213;-69
2022/09/10 02:29:12;;;;;;;1.57;1.47;;;17.00;99.90;;;;;;5118086;27;20570;-70
2022/09/10 02:31:42;;;;;;;2.83;1.47;;;17.00;99.90;;;;;;5122200;27;20539;-70
2022/09/10 02:34:09;;;;;;;1.60;1.50;;;17.00;99.90;;;;;;5136732;27;20218;-70
2022/09/10 02:36:37;;;;;;;1.60;1.53;;;17.00;99.90;;;;;;5148844;27;20267;-69
2022/09/10 02:39:05;;;;;;;3.33;1.63;;;17.00;99.90;;;;;;5140825;27;20202;-70
2022/09/10 02:41:32;;;;;;;2.10;1.77;;;16.90;99.90;;;;;;5127823;27;20216;-69
2022/09/10 02:44:00;;;;;;;2.83;1.77;;;17.00;99.90;;;;;;5126268;27;20226;-70
2022/09/10 02:46:26;;;;;;;3.57;1.73;;;17.00;99.90;;;;;;5128003;27;20221;-70
2022/09/10 02:48:54;;;;;;;3.20;1.40;;;17.00;99.90;;;;;;5128317;27;20205;-70
2022/09/10 02:51:21;;;;;;;2.23;1.63;;;16.90;99.90;;;;;;5128492;27;20241;-70
2022/09/10 02:53:48;;;;;;;1.60;1.50;;;16.80;99.90;;;;;;5113681;27;20205;-69
2022/09/10 02:56:16;;;;;;;2.00;1.57;;;16.80;99.90;;;;;;5128363;27;20233;-69
2022/09/10 02:58:44;;;;;;;1.80;1.63;;;16.80;99.90;;;;;;5128088;27;20658;-70
2022/09/10 03:01:13;;;;;;;2.87;1.20;;;16.80;99.90;;;;;;5128261;27;20654;-70
2022/09/10 03:03:41;;;;;;;1.60;1.50;;;16.80;99.90;;;;;;5128126;27;20208;-70
2022/09/10 03:06:09;;;;;;;6.17;1.80;;;16.80;99.90;;;;;;5108319;27;20202;-68
2022/09/10 03:08:36;;;;;;;2.77;1.77;;;16.80;99.90;;;;;;5107356;28;20202;-69
2022/09/10 03:11:08;;;;;;;2.57;1.63;;;16.70;99.90;;;;;;5107352;28;20209;-69
2022/09/10 03:13:35;;;;;;;1.80;1.67;;;16.60;99.90;;;;;;5107595;28;20197;-69
2022/09/10 03:16:12;;;;;;;1.87;1.70;;;16.40;99.90;;;;;;5107420;28;20268;-70
2022/09/10 03:18:38;;;;;;;2.77;1.77;;;16.30;99.90;;;;;;5111803;28;20198;-70
2022/09/10 03:21:13;;;;;;;3.97;1.83;;;16.30;99.90;;;;;;5112052;28;20213;-71
2022/09/10 03:23:41;;;;;;;2.80;1.77;;;16.30;99.90;;;;;;5114774;27;20208;-69
2022/09/10 03:26:09;;;;;;;3.77;1.67;;;16.40;99.90;;;;;;5118608;27;20214;-69
2022/09/10 03:28:36;;;;;;;2.40;1.87;;;16.40;99.90;;;;;;5112171;27;20201;-69
2022/09/10 03:31:07;;;;;;;2.17;1.63;;;16.50;99.90;;;;;;5111417;28;20676;-69
2022/09/10 03:33:34;;;;;;;2.17;1.80;;;16.50;99.90;;;;;;5111387;28;20663;-70
2022/09/10 03:36:02;;;;;;;3.03;1.70;;;16.40;99.90;;;;;;5111908;28;20237;-71
2022/09/10 03:38:31;;;;;;;3.23;1.60;;;16.40;99.90;;;;;;5111763;27;20519;-70
2022/09/10 03:41:00;;;;;;;3.03;1.40;;;16.50;99.90;;;;;;5125153;27;20675;-70
2022/09/10 03:43:27;;;;;;;2.03;1.70;;;16.50;99.90;;;;;;5111165;28;20238;-70
2022/09/10 03:45:54;;;;;;;1.83;1.73;;;16.60;99.90;;;;;;5129575;27;20229;-70
2022/09/10 03:48:21;;;;;;;1.87;1.60;;;16.60;99.90;;;;;;5127940;27;20205;-70
2022/09/10 03:50:49;;;;;;;3.10;2.10;;;16.50;99.90;;;;;;5111557;28;20210;-69
2022/09/10 03:53:18;;;;;;;2.33;1.63;;;16.50;99.90;;;;;;5121901;27;20659;-68
2022/09/10 03:55:48;;;;;;;2.20;1.67;;;16.30;99.90;;;;;;5111320;28;20226;-68
2022/09/10 03:58:16;;;;;;;4.23;1.87;;;16.20;99.90;;;;;;5111419;28;20217;-69
2022/09/10 04:00:44;;;;;;;1.80;1.60;;;16.10;99.90;;;;;;5110973;28;20843;-68
2022/09/10 04:03:11;;;;;;;2.13;1.80;;;16.00;99.90;;;;;;5111100;28;20206;-68
2022/09/10 04:05:39;;;;;;;2.53;1.70;;;15.90;99.90;;;;;;5122545;27;20302;-68
2022/09/10 04:08:08;;;;;;;2.03;1.83;;;15.80;99.90;;;;;;5131478;27;20216;-69
2022/09/10 04:10:35;;;;;;;2.63;1.70;;;15.70;99.90;;;;;;5129036;27;20201;-68
2022/09/10 04:13:03;;;;;;;2.07;1.57;;;15.70;99.90;;;;;;5122536;27;20193;-68
2022/09/10 04:15:30;;;;;;;3.60;2.07;;;15.80;99.90;;;;;;5130940;27;20232;-69
2022/09/10 04:17:59;;;;;;;1.80;1.50;;;15.90;99.90;;;;;;5131191;27;20209;-69
2022/09/10 04:20:26;;;;;;;1.80;1.70;;;16.00;99.90;;;;;;5118831;27;20259;-68
2022/09/10 04:22:55;;;;;;;3.03;1.80;;;16.00;99.90;;;;;;5130152;27;20567;-69
2022/09/10 04:25:22;;;;;;;1.67;1.57;;;16.00;99.90;;;;;;5113436;27;20206;-69
2022/09/10 04:27:51;;;;;;;2.00;1.60;;;16.00;99.90;;;;;;5110175;28;20218;-69
2022/09/10 04:30:19;;;;;;;2.47;1.50;;;16.00;99.90;;;;;;5110329;28;20225;-69
2022/09/10 04:32:46;;;;;;;3.50;1.67;;;16.10;99.90;;;;;;5117495;27;20220;-69
2022/09/10 04:35:14;;;;;;;2.50;1.50;;;16.10;99.90;;;;;;5110360;27;20202;-69
2022/09/10 04:37:42;;;;;;;2.10;1.50;;;16.00;99.90;;;;;;5110269;28;20202;-69
2022/09/10 04:40:09;;;;;;;6.40;2.00;;;16.00;99.90;;;;;;5127544;27;20236;-69
2022/09/10 04:42:37;;;;;;;1.70;1.60;;;15.90;99.90;;;;;;5126640;27;20198;-69
2022/09/10 04:45:04;;;;;;;2.20;1.70;;;15.90;99.90;;;;;;5129858;27;20221;-69
2022/09/10 04:47:33;;;;;;;3.13;1.80;;;15.80;99.90;;;;;;5110499;28;20205;-70
2022/09/10 04:49:59;;;;;;;1.97;1.60;;;15.60;99.90;;;;;;5110232;28;20283;-69
2022/09/10 04:52:27;;;;;;;2.37;1.77;;;15.60;99.90;;;;;;5110324;28;20236;-69
2022/09/10 04:54:54;;;;;;;2.67;1.60;;;15.60;99.90;;;;;;5117113;27;20247;-70
2022/09/10 04:57:21;;;;;;;1.67;1.40;;;15.70;99.90;;;;;;5110094;28;20240;-70
2022/09/10 04:59:48;;;;;;;2.07;1.80;;;15.60;99.90;;;;;;5109903;27;20656;-69
2022/09/10 05:02:14;;;;;;;1.73;1.63;;;15.50;99.90;;;;;;5109857;28;20213;-69
2022/09/10 05:04:43;;;;;;;1.57;1.47;;;15.50;99.90;;;;;;5110018;28;20609;-69
2022/09/10 05:07:09;;;;;;;1.50;1.40;;;15.40;99.90;;;;;;5110661;27;20190;-69
2022/09/10 05:09:36;;;;;;;2.70;1.90;;;15.40;99.90;;;;;;5121109;27;20237;-70
2022/09/10 05:12:03;;;;;;;1.97;1.67;;;15.50;99.90;;;;;;5130278;27;20201;-70
2022/09/10 05:14:30;;;;;;;2.57;1.53;;;15.50;99.90;;;;;;5130038;27;20201;-69
2022/09/10 05:16:57;;;;;;;1.90;1.77;;;15.60;99.90;;;;;;5129903;27;20699;-69
2022/09/10 05:19:23;;;;;;;2.97;1.50;;;15.60;99.90;;;;;;5121385;27;20206;-68
2022/09/10 05:21:52;;;;;;;2.97;1.70;;;15.40;99.90;;;;;;5109764;28;20214;-68
2022/09/10 05:24:19;;;;;;;2.93;1.73;;;15.60;99.90;;;;;;5129568;27;20683;-68
2022/09/10 05:26:46;;;;;;;2.37;1.60;;;15.70;99.90;;;;;;5129506;27;20957;-69
2022/09/10 05:29:12;;;;;;;2.77;1.67;;;15.80;99.90;;;;;;5130160;27;20198;-68
2022/09/10 05:31:40;;;;;;;2.27;1.70;;;15.90;99.90;;;;;;5128840;27;20227;-68
2022/09/10 05:34:07;;;;;;;2.83;1.60;;;15.90;99.90;;;;;;5130294;27;20241;-68
2022/09/10 05:36:34;;;;;;;1.70;1.60;;;16.00;99.90;;;;;;5129761;27;20253;-69
2022/09/10 05:39:03;;;;;;;3.60;1.73;;;16.00;99.90;;;;;;5126868;27;20204;-69
2022/09/10 05:41:30;;;;;;;3.67;1.73;;;16.00;99.90;;;;;;5120207;27;20216;-68
2022/09/10 05:43:57;;;;;;;3.10;1.90;;;15.90;99.90;;;;;;5118731;27;20218;-69
2022/09/10 05:46:24;;;;;;;3.03;1.50;;;15.90;99.90;;;;;;5129414;27;20240;-69
2022/09/10 05:48:52;;;;;;;3.47;1.80;;;15.70;99.90;;;;;;5129780;27;20208;-69
2022/09/10 05:51:20;;;;;;;2.33;1.53;;;15.80;99.90;;;;;;5129649;27;20217;-69
2022/09/10 05:53:47;;;;;;;4.20;1.80;;;15.70;99.90;;;;;;5129296;27;20581;-69
2022/09/10 05:56:15;;;;;;;2.50;1.63;;;15.70;99.90;;;;;;5128730;27;20229;-69
2022/09/10 05:58:43;;;;;;;2.60;1.70;;;15.60;99.90;;;;;;5128779;27;20667;-69
2022/09/10 06:01:10;;;;;;;3.37;1.70;;;15.50;99.90;;;;;;5129267;27;20202;-70
2022/09/10 06:03:39;;;;;;;2.43;1.70;;;15.50;99.90;;;;;;5129385;27;20209;-70
2022/09/10 06:06:09;;;;;;;1.87;1.70;;;15.50;99.90;;;;;;5127146;27;20206;-70
2022/09/10 06:08:36;;;;;;;1.70;1.60;;;15.60;99.90;;;;;;5108656;28;20235;-70
2022/09/10 06:11:10;;;;;;;2.50;1.63;;;15.60;99.90;;;;;;5108413;28;20731;-70
2022/09/10 06:13:41;;;;;;;3.67;1.53;;;15.70;99.90;;;;;;5108635;28;20208;-70
2022/09/10 06:16:10;;;;;;;3.03;1.97;;;15.70;99.90;;;;;;5108716;28;20309;-69
2022/09/10 06:18:37;;;;;;;2.70;1.50;;;15.70;99.90;;;;;;5111896;27;20204;-68
2022/09/10 06:21:11;;;;;;;1.80;1.30;;;15.80;99.90;;;;;;5128788;27;20248;-68
2022/09/10 06:23:39;;;;;;;2.27;1.50;;;15.80;99.90;;;;;;5115628;27;20193;-68
2022/09/10 06:26:15;;;;;;;2.97;1.90;;;15.80;99.90;;;;;;5108553;28;20202;-69
2022/09/10 06:28:44;;;;;;;1.97;1.53;;;15.80;99.90;;;;;;5108387;27;20216;-69
2022/09/10 06:31:15;;;;;;;4.30;1.70;;;15.90;99.90;;;;;;5108003;28;20206;-67
2022/09/10 06:33:43;;;;;;;3.60;1.53;;;16.00;99.90;;;;;;5107976;28;20273;-68
2022/09/10 06:36:10;;;;;;;2.23;1.23;;;16.10;99.90;;;;;;5120177;27;20230;-68
2022/09/10 06:38:37;;;;;;;2.90;1.50;;;16.20;99.90;;;;;;5111147;27;20294;-68
2022/09/10 06:41:12;;;;;;;1.83;1.40;;;16.20;99.90;;;;;;5119718;27;20201;-68
2022/09/10 06:43:40;;;;;;;2.73;1.50;;;16.30;99.90;;;;;;5128192;27;20236;-68
2022/09/10 06:46:14;;;;;;;1.93;1.37;;;16.30;99.90;;;;;;5128340;27;20225;-67
2022/09/10 06:48:41;;;;;;;4.67;1.40;;;16.40;99.90;;;;;;5128495;27;20200;-68
2022/09/10 06:51:11;;;;;;;1.57;1.30;;;16.50;99.90;;;;;;5114390;27;20293;-68
2022/09/10 06:53:39;;;;;;;1.50;1.30;;;16.50;99.90;;;;;;5113124;27;20198;-68
2022/09/10 06:56:12;;;;;;;2.30;1.23;;;16.50;99.90;;;;;;5125897;27;20679;-68
2022/09/10 06:58:39;;;;;;;1.93;1.30;;;16.50;99.90;;;;;;5122690;27;20197;-69
2022/09/10 07:01:16;;;;;;;2.97;1.60;;;16.60;99.90;;;;;;5128239;27;20216;-68
2022/09/10 07:03:43;;;;;;;6.00;1.77;;;16.60;99.90;;;;;;5128360;27;20204;-68
2022/09/10 07:06:12;;;;;;;3.03;1.37;;;16.60;99.90;;;;;;5117663;27;20228;-68
2022/09/10 07:08:39;;;;;;;1.70;1.20;;;16.70;99.90;;;;;;5107528;28;20306;-66
2022/09/10 07:11:12;;;;;;;2.90;1.57;;;16.80;99.90;;;;;;5107791;28;20240;-67
2022/09/10 07:13:39;;;;;;;2.03;1.43;;;16.80;99.90;;;;;;5107656;28;20557;-67
2022/09/10 07:16:10;;;;;;;2.23;1.50;;;16.80;99.90;;;;;;5135396;27;20197;-67
2022/09/10 07:18:38;;;;;;;2.70;1.50;;;16.80;99.90;;;;;;5129076;27;20213;-67
2022/09/10 07:21:13;;;;;;;2.67;1.50;;;16.90;99.90;;;;;;5128210;27;20223;-68
2022/09/10 07:23:40;;;;;;;2.00;1.33;;;17.00;99.90;;;;;;5128101;27;20224;-68
2022/09/10 07:26:12;;;;;;;1.20;1.10;;;17.00;99.90;;;;;;5109908;27;20221;-68
2022/09/10 07:28:41;;;;;;;4.23;1.40;;;17.10;99.90;;;;;;5107724;28;20202;-68
2022/09/10 07:31:13;;;;;;;2.57;1.30;;;17.20;99.90;;;;;;5109236;28;20229;-68
2022/09/10 07:33:42;;;;;;;4.60;1.63;;;17.30;99.90;;;;;;5108656;27;20217;-67
2022/09/10 07:36:09;;;;;;;1.83;1.30;;;17.30;99.90;;;;;;5107713;28;20213;-67
2022/09/10 07:38:36;;;;;;;2.17;1.40;;;17.40;99.90;;;;;;5107429;28;20202;-67
2022/09/10 07:41:12;;;;;;;4.67;1.37;;;17.50;99.90;;;;;;5109097;28;20247;-67
2022/09/10 07:43:39;;;;;;;1.80;1.20;;;17.50;99.90;;;;;;5127652;27;20281;-67
2022/09/10 07:46:11;;;;;;;3.80;1.17;;;17.60;99.90;;;;;;5127811;27;20229;-68
2022/09/10 07:48:38;;;;;;;2.70;1.57;;;17.60;99.90;;;;;;5127917;27;20218;-67
2022/09/10 07:51:12;;;;;;;2.10;0.90;;;17.60;99.90;;;;;;5127964;27;20198;-67
2022/09/10 07:53:38;;;;;;;3.27;1.20;;;17.70;99.90;;;;;;5125062;27;20205;-67
2022/09/10 07:56:12;;;;;;;2.80;1.10;;;17.80;99.90;;;;;;5107174;28;20676;-67
2022/09/10 07:58:39;;;;;;;2.20;0.97;;;17.90;99.90;;;;;;5107320;28;20543;-67
2022/09/10 08:01:10;;;;;;;1.67;1.10;;;17.90;99.90;;;;;;5107186;28;20297;-67
2022/09/10 08:03:38;;;;;;;3.07;1.40;;;18.00;99.90;;;;;;5107809;28;20213;-67
2022/09/10 08:06:09;;;;;;;1.53;1.23;;;18.10;99.90;;;;;;5111132;28;20206;-67
2022/09/10 08:08:38;;;;;;;1.90;1.10;;;18.10;99.90;;;;;;5110842;28;20222;-67
2022/09/10 08:11:10;;;;;;;1.53;1.33;;;18.20;99.90;;;;;;5110954;28;20221;-67
2022/09/10 08:13:39;;;;;;;1.80;1.00;;;18.30;99.90;;;;;;5110938;28;20202;-68
2022/09/10 08:16:14;;;;;;;3.43;1.07;;;18.30;99.90;;;;;;5110270;28;20198;-67
2022/09/10 08:18:41;;;;;;;1.57;1.07;;;18.30;99.90;;;;;;5124415;27;20229;-67
2022/09/10 08:21:09;;;;;;;5.93;1.47;;;18.40;99.90;;;;;;5139085;27;20205;-67
2022/09/10 08:23:38;;;;;;;4.20;1.17;;;18.40;99.90;;;;;;5149612;27;20204;-67
2022/09/10 08:26:11;;;;;;;1.40;0.90;;;18.50;99.90;;;;;;5131193;27;20299;-67
2022/09/10 08:28:38;;;;;;;2.17;1.10;;;18.60;99.90;;;;;;5127361;27;20212;-67
2022/09/10 08:31:12;;;;;;;2.47;1.07;;;18.70;99.90;;;;;;5111104;27;20206;-68
2022/09/10 08:33:40;;;;;;;1.47;1.00;;;18.80;99.90;;;;;;5110284;27;20198;-68
2022/09/10 08:36:13;;;;;;;3.70;1.47;;;18.80;99.90;;;;;;5110195;28;20695;-68
2022/09/10 08:38:42;;;;;;;1.10;1.10;;;19.00;99.90;;;;;;5109799;28;20299;-69
2022/09/10 08:41:12;;;;;;;0.90;0.73;;;19.00;99.90;;;;;;5110090;28;20217;-68
2022/09/10 08:43:43;;;;;;;2.07;1.40;;;19.00;99.90;;;;;;5126285;27;20275;-68
2022/09/10 08:46:16;;;;;;;1.80;0.90;;;19.20;99.90;;;;;;5130503;27;20235;-69
2022/09/10 08:48:45;;;;;;;4.23;1.00;;;19.20;99.90;;;;;;5130633;27;20189;-68
2022/09/10 08:51:17;;;;;;;2.80;1.13;;;19.20;99.90;;;;;;5130268;27;20201;-67
2022/09/10 08:53:53;;;;;;;1.07;0.97;;;19.30;99.90;;;;;;5130276;27;20197;-67
2022/09/10 08:56:22;;;;;;;3.03;1.33;;;19.40;99.90;;;;;;5130613;27;20228;-67
2022/09/10 08:58:54;;;;;;;3.20;1.03;;;19.40;99.90;;;;;;5110118;28;20230;-67
2022/09/10 09:01:29;;;;;;;2.30;0.90;;;19.40;99.90;;;;;;5109195;28;20645;-67
2022/09/10 09:03:57;;;;;;;1.87;1.00;;;19.50;99.90;;;;;;5109650;28;20793;-67
2022/09/10 09:06:32;;;;;;;2.43;1.07;;;19.60;99.90;;;;;;5109695;28;20231;-67
2022/09/10 09:09:01;;;;;;;2.00;0.80;;;19.70;99.90;;;;;;5126921;27;20239;-67
2022/09/10 09:11:41;;;;;;;4.47;1.07;;;19.80;99.90;;;;;;5130420;27;20198;-67
2022/09/10 09:14:34;;;;;;;2.47;1.00;;;19.80;99.90;;;;;;5129991;27;20212;-67
2022/09/10 09:17:19;;;;;;;1.97;0.90;;;19.70;99.90;;;;;;5129975;27;20217;-67
2022/09/10 09:19:55;;;;;;;2.13;1.97;;;19.60;99.90;;;;;;5114059;27;20198;-67
2022/09/10 09:22:30;;;;;;;2.43;1.10;;;19.60;99.90;;;;;;5109671;28;20194;-67
2022/09/10 09:24:59;;;;;;;3.87;2.60;;;19.70;99.90;;;;;;5124189;27;20192;-67
2022/09/10 09:27:30;;;;;;;1.73;1.10;;;19.80;99.90;;;;;;5112355;27;20216;-68
2022/09/10 09:30:00;;;;;;;1.37;1.00;;;19.90;99.90;;;;;;5121213;27;20205;-67
2022/09/10 09:32:30;;;;;;;2.57;1.00;;;20.00;99.90;;;;;;5118821;27;20198;-67
2022/09/10 09:35:04;;;;;;;1.03;1.03;;;19.90;99.90;;;;;;5114164;27;20568;-67
2022/09/10 09:37:33;;;;;;;2.20;1.23;;;20.00;99.90;;;;;;5126135;27;20759;-67
2022/09/10 09:40:12;;;;;;;3.43;0.87;;;20.20;99.90;;;;;;5110958;27;20297;-67
2022/09/10 09:42:46;;;;;;;1.57;1.07;;;20.30;99.90;;;;;;5107396;27;20570;-67
2022/09/10 09:45:22;;;;;;;1.30;0.80;;;20.40;99.90;;;;;;5115934;27;20777;-67
2022/09/10 09:47:50;;;;;;;4.27;1.30;;;20.60;99.90;;;;;;5127536;27;20533;-67
2022/09/10 09:50:18;;;;;;;1.97;1.00;;;20.80;99.90;;;;;;5127598;27;20224;-67
2022/09/10 09:52:45;;;;;;;1.37;0.87;;;20.80;99.90;;;;;;5127394;27;20214;-67
2022/09/10 09:55:26;;;;;;;1.73;1.00;;;20.80;99.90;;;;;;5121994;27;20233;-67
2022/09/10 09:58:33;;;;;;;1.73;1.00;;;20.70;99.90;;;;;;5126783;27;20587;-68
2022/09/10 10:01:19;;;;;;;1.70;0.90;;;20.60;99.90;;;;;;5127010;27;20193;-68
2022/09/10 10:03:57;;;;;;;2.17;1.20;;;20.50;99.90;;;;;;5127096;27;20204;-68
2022/09/10 10:06:26;;;;;;;2.73;0.90;;;20.50;99.90;;;;;;5125114;27;20193;-68
2022/09/10 10:08:59;;;;;;;1.13;0.83;;;20.70;99.90;;;;;;5126834;27;20206;-74
2022/09/10 10:11:52;;;;;;;2.37;1.07;;;20.70;99.90;;;;;;5127162;27;20194;-66
2022/09/10 10:14:41;;;;;;;1.60;1.03;;;20.70;99.90;;;;;;5115795;27;20191;-67
2022/09/10 10:17:26;;;;;;;2.30;1.03;;;20.50;99.90;;;;;;5103612;27;20609;-68
2022/09/10 10:19:58;;;;;;;1.20;0.90;;;20.60;99.90;;;;;;5106951;28;20190;-69
2022/09/10 10:22:32;;;;;;;1.83;0.90;;;20.70;99.90;;;;;;5119372;27;20317;-69
2022/09/10 10:24:59;;;;;;;1.90;0.87;;;20.80;99.90;;;;;;5106615;27;20582;-70
2022/09/10 10:27:33;;;;;;;1.88;1.00;;;21.00;99.90;;;;;;5106216;28;20206;-69
2022/09/10 10:30:03;;;;;;;0.90;0.90;;;21.20;99.90;;;;;;5108667;27;20198;-70
2022/09/10 10:32:43;;;;;;;1.57;0.87;;;21.50;99.90;;;;;;5111269;27;20213;-69
2022/09/10 10:35:28;;;;;;;3.13;1.20;;;21.30;99.90;;;;;;5120558;27;20194;-70
2022/09/10 10:38:07;;;;;;;1.23;1.00;;;21.40;99.90;;;;;;5106110;28;20571;-69
2022/09/10 10:40:37;;;;;;;1.13;0.90;;;21.40;99.90;;;;;;5118869;27;20240;-70
2022/09/10 10:43:19;;;;;;;1.57;1.27;;;21.50;99.90;;;;;;5119856;27;20226;-69
2022/09/10 10:45:56;;;;;;;1.35;0.90;;;21.50;99.90;;;;;;5124776;27;20251;-69
2022/09/10 10:48:42;;;;;;;1.30;0.80;;;21.50;99.90;;;;;;5122519;27;20198;-69
2022/09/10 10:51:19;;;;;;;0.87;0.80;;;21.60;99.90;;;;;;5106482;28;20307;-69
2022/09/10 10:54:03;;;;;;;2.00;0.70;;;21.60;99.90;;;;;;5114193;27;20201;-69
2022/09/10 10:56:36;;;;;;;1.70;0.90;;;21.60;99.90;;;;;;5147578;27;20279;-70
2022/09/10 10:59:25;;;;;;;1.27;0.87;;;21.80;99.90;;;;;;5147752;27;20298;-69
2022/09/10 11:01:59;;;;;;;1.97;1.00;;;21.90;99.90;;;;;;5126180;27;20202;-69
2022/09/10 11:04:33;;;;;;;1.73;1.00;;;21.90;99.90;;;;;;5126896;27;20202;-69
2022/09/10 11:07:10;;;;;;;1.20;1.07;;;21.60;99.90;;;;;;5127581;27;20193;-69
2022/09/10 11:09:42;;;;;;;1.30;1.00;;;21.50;99.90;;;;;;5126584;27;20205;-69
2022/09/10 11:12:13;;;;;;;1.67;0.90;;;21.50;99.90;;;;;;5121437;27;20193;-68
2022/09/10 11:14:48;;;;;;;12.10;1.30;;;21.50;99.90;;;;;;5105476;28;20219;-70
2022/09/10 11:17:21;;;;;;;1.47;1.13;;;21.50;99.90;;;;;;5113387;28;20205;-69
2022/09/10 11:19:56;;;;;;;3.13;1.40;;;21.30;99.90;;;;;;5109902;27;20217;-69
2022/09/10 11:22:29;;;;;;;1.53;1.40;;;21.20;99.90;;;;;;5112359;28;20273;-69
2022/09/10 11:25:04;;;;;;;2.50;1.03;;;21.20;99.90;;;;;;5112765;27;20202;-68
2022/09/10 11:27:36;;;;;;;1.60;0.93;;;21.40;99.90;;;;;;5105852;28;20254;-70
2022/09/10 11:30:09;;;;;;;2.17;1.00;;;21.60;99.90;;;;;;5106207;28;20200;-69
2022/09/10 11:32:41;;;;;;;1.38;1.10;;;22.00;99.90;;;;;;5106374;28;20853;-69
2022/09/10 11:35:20;;;;;;;2.13;1.08;;;22.20;99.90;;;;;;5105806;28;20825;-69
2022/09/10 11:37:55;;;;;;;3.35;1.27;;;22.30;99.90;;;;;;5112678;28;20752;-68
2022/09/10 11:40:28;;;;;;;1.43;0.80;;;22.40;99.90;;;;;;5123005;27;20214;-69
2022/09/10 11:43:01;;;;;;;2.90;1.25;;;22.20;99.90;;;;;;5119207;27;20271;-69
2022/09/10 11:45:38;;;;;;;0.85;0.75;;;22.10;99.90;;;;;;5117528;27;20283;-69
2022/09/10 11:48:16;;;;;;;2.23;1.03;;;22.00;99.90;;;;;;5128779;27;20676;-69
2022/09/10 11:50:48;;;;;;;0.88;0.77;;;21.70;99.90;;;;;;5108345;28;20198;-70
2022/09/10 11:53:17;;;;;;;1.60;0.73;;;21.60;99.90;;;;;;5108584;28;20198;-70
2022/09/10 11:56:03;;;;;;;3.57;0.90;;;21.60;99.90;;;;;;5128030;27;20206;-70
2022/09/10 11:58:41;;;;;;;2.07;1.10;;;21.50;99.90;;;;;;5110257;27;20722;-70
2022/09/10 12:01:23;;;;;;;1.80;0.83;;;21.50;99.90;;;;;;5116958;27;20193;-71
2022/09/10 12:04:08;;;;;;;1.00;0.70;;;21.50;99.90;;;;;;5122552;27;20193;-69
2022/09/10 12:06:45;;;;;;;2.63;0.67;;;21.50;99.90;;;;;;5116705;27;20206;-70
2022/09/10 12:09:18;;;;;;;1.33;0.80;;;21.60;99.90;;;;;;5108890;27;20202;-70
2022/09/10 12:11:57;;;;;;;0.68;0.50;;;21.60;99.90;;;;;;5126739;27;20212;-70
2022/09/10 12:14:24;;;;;;;0.90;0.70;;;21.80;99.90;;;;;;5127214;27;20723;-70
2022/09/10 12:16:56;;;;;;;2.30;1.00;;;22.20;99.90;;;;;;5108610;27;20210;-70
2022/09/10 12:19:28;;;;;;;0.77;0.50;;;22.50;99.90;;;;;;5126119;27;20757;-70
2022/09/10 12:21:58;;;;;;;1.05;0.50;;;22.80;99.90;;;;;;5128292;27;20802;-70
2022/09/10 12:24:29;;;;;;;1.38;0.88;;;23.20;99.90;;;;;;5136480;27;20220;-70
2022/09/10 12:26:58;;;;;;;2.13;0.88;;;23.60;99.90;;;;;;5128777;27;20560;-70
2022/09/10 12:29:32;;;;;;;0.73;0.65;;;23.90;99.90;;;;;;5128941;27;20206;-70
2022/09/10 12:32:37;;;;;;;0.80;0.80;;;24.20;99.90;;;;;;5129045;27;20201;-70
2022/09/10 12:35:46;;;;;;;1.17;0.57;;;24.30;99.90;;;;;;5122267;27;20186;-70
2022/09/10 12:38:54;;;;;;;0.60;0.60;;;24.40;99.90;;;;;;5108429;28;20253;-70
2022/09/10 12:41:55;;;;;;;1.38;0.70;;;24.30;99.90;;;;;;5108161;28;20218;-69
2022/09/10 12:44:46;;;;;;;0.73;0.73;;;24.10;99.90;;;;;;5107771;27;20237;-69
2022/09/10 12:47:49;;;;;;;1.63;0.70;;;24.00;99.90;;;;;;5124682;27;20205;-70
2022/09/10 12:50:37;;;;;;;1.92;0.55;;;23.60;99.90;;;;;;5121252;27;20207;-70
2022/09/10 12:53:37;;;;;;;1.10;0.60;;;23.60;99.90;;;;;;5097489;27;20202;-69
2022/09/10 12:56:27;;;;;;;0.93;0.80;;;23.70;99.90;;;;;;5105976;27;20260;-69
2022/09/10 12:59:10;;;;;;;1.75;0.70;;;23.60;99.90;;;;;;5107708;28;20218;-69
2022/09/10 13:01:41;;;;;;;1.27;0.80;;;23.40;99.90;;;;;;5107426;28;20216;-69
2022/09/10 13:04:23;;;;;;;0.60;0.60;;;23.60;99.90;;;;;;5108294;28;20229;-70
2022/09/10 13:06:54;;;;;;;0.80;0.55;;;23.90;99.90;;;;;;5121197;27;20224;-69
2022/09/10 13:09:26;;;;;;;1.27;0.80;;;24.00;99.90;;;;;;5120795;27;20210;-70
2022/09/10 13:11:55;;;;;;;1.48;0.50;;;24.20;99.90;;;;;;5111141;27;20269;-69
2022/09/10 13:14:35;;;;;;;0.60;0.60;;;24.30;99.90;;;;;;5107413;28;20597;-70